sensor_id;sensor_type;location;lat;lon;timestamp;pressure;altitude;pressure_sealevel;temperature;humidity
75942;BME280;64622;46.220;19.878;2024-03-08T00:00:34;100792.06;;;7.82;100.00
75942;BME280;64622;46.220;19.878;2024-03-08T00:03:01;100788.44;;;7.82;100.00
75942;BME280;64622;46.220;19.878;2024-03-08T00:05:28;100789.06;;;7.95;100.00
75942;BME280;64622;46.220;19.878;2024-03-08T00:07:54;100794.81;;;8.12;100.00
75942;BME280;64622;46.220;19.878;2024-03-08T00:10:22;100786.13;;;7.78;100.00
75942;BME280;64622;46.220;19.878;2024-03-08T00:12:48;100793.44;;;7.97;100.00
75942;BME280;64622;46.220;19.878;2024-03-08T00:15:16;100794.72;;;8.02;100.00
75942;BME280;64622;46.220;19.878;2024-03-08T00:17:44;100796.22;;;7.95;100.00
75942;BME280;64622;46.220;19.878;2024-03-08T00:20:11;100779.19;;;8.07;100.00
75942;BME280;64622;46.220;19.878;2024-03-08T00:22:39;100787.25;;;7.96;100.00
75942;BME280;64622;46.220;19.878;2024-03-08T00:25:07;100792.06;;;8.02;100.00
75942;BME280;64622;46.220;19.878;2024-03-08T00:27:37;100792.00;;;7.93;100.00
75942;BME280;64622;46.220;19.878;2024-03-08T00:30:05;100796.41;;;7.82;100.00
75942;BME280;64622;46.220;19.878;2024-03-08T00:32:32;100792.72;;;7.74;100.00
75942;BME280;64622;46.220;19.878;2024-03-08T00:34:59;100789.56;;;7.48;100.00
75942;BME280;64622;46.220;19.878;2024-03-08T00:37:25;100790.56;;;7.68;100.00
75942;BME280;64622;46.220;19.878;2024-03-08T00:39:52;100791.91;;;7.62;100.00
75942;BME280;64622;46.220;19.878;2024-03-08T00:42:20;100797.91;;;7.75;100.00
75942;BME280;64622;46.220;19.878;2024-03-08T00:44:47;100789.50;;;7.59;100.00
75942;BME280;64622;46.220;19.878;2024-03-08T00:47:17;100791.50;;;7.47;100.00
75942;BME280;64622;46.220;19.878;2024-03-08T00:49:44;100787.81;;;7.58;100.00
75942;BME280;64622;46.220;19.878;2024-03-08T00:52:10;100783.94;;;7.31;100.00
75942;BME280;64622;46.220;19.878;2024-03-08T00:54:37;100790.69;;;7.35;100.00
75942;BME280;64622;46.220;19.878;2024-03-08T00:57:04;100796.91;;;7.24;100.00
75942;BME280;64622;46.220;19.878;2024-03-08T00:59:31;100783.16;;;7.08;100.00
75942;BME280;64622;46.220;19.878;2024-03-08T01:02:01;100781.81;;;7.14;100.00
75942;BME280;64622;46.220;19.878;2024-03-08T01:04:27;100786.72;;;7.29;100.00
75942;BME280;64622;46.220;19.878;2024-03-08T01:06:59;100787.62;;;7.51;100.00
75942;BME280;64622;46.220;19.878;2024-03-08T01:09:26;100794.28;;;7.45;100.00
75942;BME280;64622;46.220;19.878;2024-03-08T01:11:54;100782.59;;;7.37;100.00
75942;BME280;64622;46.220;19.878;2024-03-08T01:14:21;100791.03;;;7.42;100.00
75942;BME280;64622;46.220;19.878;2024-03-08T01:16:57;100786.97;;;7.27;100.00
75942;BME280;64622;46.220;19.878;2024-03-08T01:19:24;100785.31;;;7.26;100.00
75942;BME280;64622;46.220;19.878;2024-03-08T01:21:50;100785.50;;;7.33;100.00
75942;BME280;64622;46.220;19.878;2024-03-08T01:24:18;100792.59;;;7.12;100.00
75942;BME280;64622;46.220;19.878;2024-03-08T01:26:44;100783.41;;;7.06;100.00
75942;BME280;64622;46.220;19.878;2024-03-08T01:29:11;100789.84;;;6.92;100.00
75942;BME280;64622;46.220;19.878;2024-03-08T01:31:38;100785.66;;;7.21;100.00
75942;BME280;64622;46.220;19.878;2024-03-08T01:34:04;100787.19;;;7.34;100.00
75942;BME280;64622;46.220;19.878;2024-03-08T01:36:31;100791.09;;;7.31;100.00
75942;BME280;64622;46.220;19.878;2024-03-08T01:38:58;100779.66;;;7.39;100.00
75942;BME280;64622;46.220;19.878;2024-03-08T01:41:24;100787.25;;;7.12;100.00
75942;BME280;64622;46.220;19.878;2024-03-08T01:43:51;100784.06;;;7.29;100.00
75942;BME280;64622;46.220;19.878;2024-03-08T01:46:21;100777.94;;;7.18;100.00
75942;BME280;64622;46.220;19.878;2024-03-08T01:48:48;100783.94;;;7.31;100.00
75942;BME280;64622;46.220;19.878;2024-03-08T01:51:16;100774.81;;;7.13;100.00
75942;BME280;64622;46.220;19.878;2024-03-08T01:53:46;100768.53;;;7.34;100.00
75942;BME280;64622;46.220;19.878;2024-03-08T01:56:13;100778.38;;;7.34;100.00
75942;BME280;64622;46.220;19.878;2024-03-08T01:58:41;100776.63;;;7.12;100.00
75942;BME280;64622;46.220;19.878;2024-03-08T02:01:12;100780.91;;;7.24;100.00
75942;BME280;64622;46.220;19.878;2024-03-08T02:03:41;100768.72;;;7.22;100.00
75942;BME280;64622;46.220;19.878;2024-03-08T02:06:11;100773.56;;;7.17;100.00
75942;BME280;64622;46.220;19.878;2024-03-08T02:08:41;100774.66;;;7.14;100.00
75942;BME280;64622;46.220;19.878;2024-03-08T02:11:10;100780.72;;;7.17;100.00
75942;BME280;64622;46.220;19.878;2024-03-08T02:13:37;100774.22;;;6.98;100.00
75942;BME280;64622;46.220;19.878;2024-03-08T02:16:04;100774.50;;;6.96;100.00
75942;BME280;64622;46.220;19.878;2024-03-08T02:18:34;100770.94;;;7.06;100.00
75942;BME280;64622;46.220;19.878;2024-03-08T02:21:02;100780.13;;;7.02;100.00
75942;BME280;64622;46.220;19.878;2024-03-08T02:23:29;100771.25;;;6.81;100.00
75942;BME280;64622;46.220;19.878;2024-03-08T02:25:56;100777.47;;;7.02;100.00
75942;BME280;64622;46.220;19.878;2024-03-08T02:28:24;100778.53;;;7.22;100.00
75942;BME280;64622;46.220;19.878;2024-03-08T02:30:51;100778.59;;;6.88;100.00
75942;BME280;64622;46.220;19.878;2024-03-08T02:33:22;100776.72;;;7.11;100.00
75942;BME280;64622;46.220;19.878;2024-03-08T02:35:49;100778.22;;;7.04;100.00
75942;BME280;64622;46.220;19.878;2024-03-08T02:38:18;100770.59;;;7.11;100.00
75942;BME280;64622;46.220;19.878;2024-03-08T02:40:47;100782.91;;;7.12;100.00
75942;BME280;64622;46.220;19.878;2024-03-08T02:43:14;100785.34;;;7.03;100.00
75942;BME280;64622;46.220;19.878;2024-03-08T02:45:41;100793.47;;;6.91;100.00
75942;BME280;64622;46.220;19.878;2024-03-08T02:48:08;100779.50;;;7.09;100.00
75942;BME280;64622;46.220;19.878;2024-03-08T02:50:35;100783.50;;;7.15;100.00
75942;BME280;64622;46.220;19.878;2024-03-08T02:53:03;100787.31;;;6.91;100.00
75942;BME280;64622;46.220;19.878;2024-03-08T02:55:30;100785.53;;;6.58;100.00
75942;BME280;64622;46.220;19.878;2024-03-08T02:57:57;100791.69;;;6.69;100.00
75942;BME280;64622;46.220;19.878;2024-03-08T03:00:23;100779.25;;;6.70;100.00
75942;BME280;64622;46.220;19.878;2024-03-08T03:02:51;100784.91;;;6.87;100.00
75942;BME280;64622;46.220;19.878;2024-03-08T03:05:20;100788.75;;;6.83;100.00
75942;BME280;64622;46.220;19.878;2024-03-08T03:07:47;100786.37;;;6.81;100.00
75942;BME280;64622;46.220;19.878;2024-03-08T03:10:16;100791.97;;;6.56;100.00
75942;BME280;64622;46.220;19.878;2024-03-08T03:12:45;100788.66;;;6.85;100.00
75942;BME280;64622;46.220;19.878;2024-03-08T03:15:12;100788.53;;;6.64;100.00
75942;BME280;64622;46.220;19.878;2024-03-08T03:17:40;100791.06;;;6.77;100.00
75942;BME280;64622;46.220;19.878;2024-03-08T03:20:07;100797.81;;;6.92;100.00
75942;BME280;64622;46.220;19.878;2024-03-08T03:22:40;100798.78;;;7.13;100.00
75942;BME280;64622;46.220;19.878;2024-03-08T03:25:10;100792.69;;;7.11;100.00
75942;BME280;64622;46.220;19.878;2024-03-08T03:27:37;100800.59;;;7.02;100.00
75942;BME280;64622;46.220;19.878;2024-03-08T03:30:06;100801.34;;;6.93;100.00
75942;BME280;64622;46.220;19.878;2024-03-08T03:32:50;100794.69;;;6.76;100.00
75942;BME280;64622;46.220;19.878;2024-03-08T03:35:21;100793.72;;;6.77;100.00
75942;BME280;64622;46.220;19.878;2024-03-08T03:37:48;100793.84;;;6.87;100.00
75942;BME280;64622;46.220;19.878;2024-03-08T03:40:33;100799.66;;;6.92;100.00
75942;BME280;64622;46.220;19.878;2024-03-08T03:43:00;100790.56;;;6.94;100.00
75942;BME280;64622;46.220;19.878;2024-03-08T03:45:27;100792.97;;;6.97;100.00
75942;BME280;64622;46.220;19.878;2024-03-08T03:47:54;100793.13;;;6.96;100.00
75942;BME280;64622;46.220;19.878;2024-03-08T03:50:21;100800.16;;;6.86;100.00
75942;BME280;64622;46.220;19.878;2024-03-08T03:52:50;100784.56;;;6.59;100.00
75942;BME280;64622;46.220;19.878;2024-03-08T03:55:17;100800.16;;;6.63;100.00
75942;BME280;64622;46.220;19.878;2024-03-08T03:57:45;100785.78;;;6.55;100.00
75942;BME280;64622;46.220;19.878;2024-03-08T04:00:12;100786.03;;;6.63;100.00
75942;BME280;64622;46.220;19.878;2024-03-08T04:02:41;100794.72;;;6.65;100.00
75942;BME280;64622;46.220;19.878;2024-03-08T04:05:09;100792.06;;;6.54;100.00
75942;BME280;64622;46.220;19.878;2024-03-08T04:07:36;100790.00;;;6.36;100.00
75942;BME280;64622;46.220;19.878;2024-03-08T04:10:04;100791.09;;;6.66;100.00
75942;BME280;64622;46.220;19.878;2024-03-08T04:12:35;100788.94;;;6.38;100.00
75942;BME280;64622;46.220;19.878;2024-03-08T04:15:02;100796.41;;;6.33;100.00
75942;BME280;64622;46.220;19.878;2024-03-08T04:17:29;100793.75;;;6.44;100.00
75942;BME280;64622;46.220;19.878;2024-03-08T04:19:55;100803.78;;;6.41;100.00
75942;BME280;64622;46.220;19.878;2024-03-08T04:22:21;100792.56;;;6.59;100.00
75942;BME280;64622;46.220;19.878;2024-03-08T04:24:49;100794.72;;;6.54;100.00
75942;BME280;64622;46.220;19.878;2024-03-08T04:27:15;100797.13;;;6.57;100.00
75942;BME280;64622;46.220;19.878;2024-03-08T04:29:42;100794.47;;;6.57;100.00
75942;BME280;64622;46.220;19.878;2024-03-08T04:32:09;100802.94;;;6.62;100.00
75942;BME280;64622;46.220;19.878;2024-03-08T04:34:35;100811.41;;;6.56;100.00
75942;BME280;64622;46.220;19.878;2024-03-08T04:37:03;100805.72;;;6.28;100.00
75942;BME280;64622;46.220;19.878;2024-03-08T04:39:31;100811.28;;;6.47;100.00
75942;BME280;64622;46.220;19.878;2024-03-08T04:42:01;100806.31;;;6.20;100.00
75942;BME280;64622;46.220;19.878;2024-03-08T04:44:30;100815.63;;;6.47;100.00
75942;BME280;64622;46.220;19.878;2024-03-08T04:46:58;100813.31;;;6.21;100.00
75942;BME280;64622;46.220;19.878;2024-03-08T04:49:24;100819.00;;;6.49;100.00
75942;BME280;64622;46.220;19.878;2024-03-08T04:51:50;100814.41;;;6.29;100.00
75942;BME280;64622;46.220;19.878;2024-03-08T04:54:17;100814.16;;;6.43;100.00
75942;BME280;64622;46.220;19.878;2024-03-08T04:56:45;100810.44;;;6.46;100.00
75942;BME280;64622;46.220;19.878;2024-03-08T04:59:11;100799.69;;;6.47;100.00
75942;BME280;64622;46.220;19.878;2024-03-08T05:01:38;100814.03;;;6.67;100.00
75942;BME280;64622;46.220;19.878;2024-03-08T05:04:04;100811.50;;;6.54;100.00
75942;BME280;64622;46.220;19.878;2024-03-08T05:06:32;100807.16;;;6.32;100.00
75942;BME280;64622;46.220;19.878;2024-03-08T05:09:00;100807.66;;;6.37;100.00
75942;BME280;64622;46.220;19.878;2024-03-08T05:11:26;100811.41;;;6.34;100.00
75942;BME280;64622;46.220;19.878;2024-03-08T05:13:53;100816.50;;;6.48;100.00
75942;BME280;64622;46.220;19.878;2024-03-08T05:16:20;100809.22;;;6.61;100.00
75942;BME280;64622;46.220;19.878;2024-03-08T05:18:48;100809.34;;;6.37;100.00
75942;BME280;64622;46.220;19.878;2024-03-08T05:21:15;100823.84;;;6.44;100.00
75942;BME280;64622;46.220;19.878;2024-03-08T05:23:44;100811.62;;;6.42;100.00
75942;BME280;64622;46.220;19.878;2024-03-08T05:26:10;100824.81;;;6.43;100.00
75942;BME280;64622;46.220;19.878;2024-03-08T05:28:37;100822.38;;;6.29;100.00
75942;BME280;64622;46.220;19.878;2024-03-08T05:31:03;100823.59;;;6.37;100.00
75942;BME280;64622;46.220;19.878;2024-03-08T05:33:30;100822.63;;;6.37;100.00
75942;BME280;64622;46.220;19.878;2024-03-08T05:35:56;100827.72;;;6.41;100.00
75942;BME280;64622;46.220;19.878;2024-03-08T05:38:23;100816.94;;;6.31;100.00
75942;BME280;64622;46.220;19.878;2024-03-08T05:40:50;100826.38;;;6.46;100.00
75942;BME280;64622;46.220;19.878;2024-03-08T05:43:17;100816.25;;;5.83;100.00
75942;BME280;64622;46.220;19.878;2024-03-08T05:45:46;100837.81;;;6.24;100.00
75942;BME280;64622;46.220;19.878;2024-03-08T05:48:13;100835.06;;;6.37;100.00
75942;BME280;64622;46.220;19.878;2024-03-08T05:50:40;100822.63;;;6.16;100.00
75942;BME280;64622;46.220;19.878;2024-03-08T05:53:07;100833.59;;;6.22;100.00
75942;BME280;64622;46.220;19.878;2024-03-08T05:55:33;100839.19;;;6.41;100.00
75942;BME280;64622;46.220;19.878;2024-03-08T05:58:02;100834.09;;;6.27;100.00
75942;BME280;64622;46.220;19.878;2024-03-08T06:00:29;100845.94;;;6.23;100.00
75942;BME280;64622;46.220;19.878;2024-03-08T06:02:57;100827.56;;;6.20;100.00
75942;BME280;64622;46.220;19.878;2024-03-08T06:05:25;100836.53;;;6.52;100.00
75942;BME280;64622;46.220;19.878;2024-03-08T06:07:51;100839.19;;;6.41;100.00
75942;BME280;64622;46.220;19.878;2024-03-08T06:10:19;100833.50;;;6.34;100.00
75942;BME280;64622;46.220;19.878;2024-03-08T06:12:46;100828.66;;;6.28;100.00
75942;BME280;64622;46.220;19.878;2024-03-08T06:15:13;100845.94;;;6.23;100.00
75942;BME280;64622;46.220;19.878;2024-03-08T06:17:43;100838.09;;;5.87;100.00
75942;BME280;64622;46.220;19.878;2024-03-08T06:20:10;100843.72;;;6.06;100.00
75942;BME280;64622;46.220;19.878;2024-03-08T06:22:37;100843.97;;;6.14;100.00
75942;BME280;64622;46.220;19.878;2024-03-08T06:25:10;100843.53;;;6.42;100.00
75942;BME280;64622;46.220;19.878;2024-03-08T06:27:43;100837.59;;;6.28;100.00
75942;BME280;64622;46.220;19.878;2024-03-08T06:30:10;100847.91;;;6.54;100.00
75942;BME280;64622;46.220;19.878;2024-03-08T06:32:37;100837.13;;;6.33;100.00
75942;BME280;64622;46.220;19.878;2024-03-08T06:35:04;100845.19;;;6.21;100.00
75942;BME280;64622;46.220;19.878;2024-03-08T06:37:33;100851.28;;;6.45;100.00
75942;BME280;64622;46.220;19.878;2024-03-08T06:40:00;100847.84;;;6.21;100.00
75942;BME280;64622;46.220;19.878;2024-03-08T06:42:30;100851.06;;;6.03;100.00
75942;BME280;64622;46.220;19.878;2024-03-08T06:45:02;100861.50;;;6.17;100.00
75942;BME280;64622;46.220;19.878;2024-03-08T06:47:31;100848.59;;;6.23;100.00
75942;BME280;64622;46.220;19.878;2024-03-08T06:49:58;100859.19;;;6.12;100.00
75942;BME280;64622;46.220;19.878;2024-03-08T06:52:25;100858.75;;;6.29;100.00
75942;BME280;64622;46.220;19.878;2024-03-08T06:54:51;100848.56;;;6.12;100.00
75942;BME280;64622;46.220;19.878;2024-03-08T06:57:19;100862.69;;;6.12;100.00
75942;BME280;64622;46.220;19.878;2024-03-08T06:59:49;100863.75;;;6.56;100.00
75942;BME280;64622;46.220;19.878;2024-03-08T07:02:15;100862.09;;;6.09;100.00
75942;BME280;64622;46.220;19.878;2024-03-08T07:04:41;100863.00;;;6.32;100.00
75942;BME280;64622;46.220;19.878;2024-03-08T07:07:08;100853.16;;;6.21;100.00
75942;BME280;64622;46.220;19.878;2024-03-08T07:09:36;100859.47;;;6.31;100.00
75942;BME280;64622;46.220;19.878;2024-03-08T07:12:03;100862.88;;;6.33;100.00
75942;BME280;64622;46.220;19.878;2024-03-08T07:14:30;100865.62;;;6.21;100.00
75942;BME280;64622;46.220;19.878;2024-03-08T07:16:57;100865.34;;;6.12;100.00
75942;BME280;64622;46.220;19.878;2024-03-08T07:19:23;100860.47;;;6.52;100.00
75942;BME280;64622;46.220;19.878;2024-03-08T07:21:51;100852.97;;;6.35;100.00
75942;BME280;64622;46.220;19.878;2024-03-08T07:24:17;100858.16;;;6.26;100.00
75942;BME280;64622;46.220;19.878;2024-03-08T07:26:43;100862.38;;;6.28;100.00
75942;BME280;64622;46.220;19.878;2024-03-08T07:29:10;100857.19;;;6.48;100.00
75942;BME280;64622;46.220;19.878;2024-03-08T07:31:37;100867.50;;;6.53;100.00
75942;BME280;64622;46.220;19.878;2024-03-08T07:34:03;100869.19;;;6.54;100.00
75942;BME280;64622;46.220;19.878;2024-03-08T07:36:34;100862.41;;;6.50;100.00
75942;BME280;64622;46.220;19.878;2024-03-08T07:39:03;100855.75;;;6.44;100.00
75942;BME280;64622;46.220;19.878;2024-03-08T07:41:31;100863.13;;;6.52;100.00
75942;BME280;64622;46.220;19.878;2024-03-08T07:44:00;100868.97;;;6.68;100.00
75942;BME280;64622;46.220;19.878;2024-03-08T07:46:29;100872.34;;;6.70;100.00
75942;BME280;64622;46.220;19.878;2024-03-08T07:48:56;100864.47;;;6.57;100.00
75942;BME280;64622;46.220;19.878;2024-03-08T07:51:23;100868.59;;;6.51;100.00
75942;BME280;64622;46.220;19.878;2024-03-08T07:53:49;100868.31;;;6.53;100.00
75942;BME280;64622;46.220;19.878;2024-03-08T07:56:15;100869.53;;;6.93;100.00
75942;BME280;64622;46.220;19.878;2024-03-08T07:58:45;100876.09;;;7.01;100.00
75942;BME280;64622;46.220;19.878;2024-03-08T08:01:17;100857.56;;;6.55;100.00
75942;BME280;64622;46.220;19.878;2024-03-08T08:03:45;100863.50;;;6.58;100.00
75942;BME280;64622;46.220;19.878;2024-03-08T08:06:11;100863.38;;;6.71;100.00
75942;BME280;64622;46.220;19.878;2024-03-08T08:08:42;100870.97;;;6.53;100.00
75942;BME280;64622;46.220;19.878;2024-03-08T08:11:09;100861.31;;;6.53;100.00
75942;BME280;64622;46.220;19.878;2024-03-08T08:13:37;100870.28;;;6.62;100.00
75942;BME280;64622;46.220;19.878;2024-03-08T08:16:04;100876.56;;;6.94;100.00
75942;BME280;64622;46.220;19.878;2024-03-08T08:18:33;100862.06;;;6.77;100.00
75942;BME280;64622;46.220;19.878;2024-03-08T08:20:59;100863.25;;;6.51;100.00
75942;BME280;64622;46.220;19.878;2024-03-08T08:23:29;100866.03;;;6.60;100.00
75942;BME280;64622;46.220;19.878;2024-03-08T08:25:56;100868.69;;;6.49;100.00
75942;BME280;64622;46.220;19.878;2024-03-08T08:28:23;100864.47;;;6.68;100.00
75942;BME280;64622;46.220;19.878;2024-03-08T08:30:50;100883.56;;;6.62;100.00
75942;BME280;64622;46.220;19.878;2024-03-08T08:33:17;100864.84;;;6.53;100.00
75942;BME280;64622;46.220;19.878;2024-03-08T08:35:43;100873.63;;;6.53;100.00
75942;BME280;64622;46.220;19.878;2024-03-08T08:38:10;100878.50;;;6.71;100.00
75942;BME280;64622;46.220;19.878;2024-03-08T08:40:37;100870.16;;;6.75;100.00
75942;BME280;64622;46.220;19.878;2024-03-08T08:43:03;100876.91;;;7.01;100.00
75942;BME280;64622;46.220;19.878;2024-03-08T08:45:33;100873.53;;;6.77;100.00
75942;BME280;64622;46.220;19.878;2024-03-08T08:48:00;100875.59;;;6.73;100.00
75942;BME280;64622;46.220;19.878;2024-03-08T08:50:27;100873.91;;;6.72;100.00
75942;BME280;64622;46.220;19.878;2024-03-08T08:52:55;100876.44;;;6.63;100.00
75942;BME280;64622;46.220;19.878;2024-03-08T08:55:22;100871.84;;;6.76;100.00
75942;BME280;64622;46.220;19.878;2024-03-08T08:57:53;100872.69;;;6.77;100.00
75942;BME280;64622;46.220;19.878;2024-03-08T09:00:19;100865.69;;;6.76;100.00
75942;BME280;64622;46.220;19.878;2024-03-08T09:02:47;100885.50;;;6.93;100.00
75942;BME280;64622;46.220;19.878;2024-03-08T09:05:14;100871.47;;;6.69;100.00
75942;BME280;64622;46.220;19.878;2024-03-08T09:07:45;100882.34;;;6.99;100.00
75942;BME280;64622;46.220;19.878;2024-03-08T09:10:12;100873.06;;;6.94;100.00
75942;BME280;64622;46.220;19.878;2024-03-08T09:12:40;100873.97;;;7.26;100.00
75942;BME280;64622;46.220;19.878;2024-03-08T09:15:07;100870.53;;;6.93;100.00
75942;BME280;64622;46.220;19.878;2024-03-08T09:17:40;100873.44;;;7.01;100.00
75942;BME280;64622;46.220;19.878;2024-03-08T09:20:07;100872.94;;;6.96;100.00
75942;BME280;64622;46.220;19.878;2024-03-08T09:22:44;100872.06;;;6.62;100.00
75942;BME280;64622;46.220;19.878;2024-03-08T09:25:10;100870.28;;;6.73;100.00
75942;BME280;64622;46.220;19.878;2024-03-08T09:27:37;100876.56;;;7.06;100.00
75942;BME280;64622;46.220;19.878;2024-03-08T09:30:06;100868.84;;;6.92;100.00
75942;BME280;64622;46.220;19.878;2024-03-08T09:32:33;100875.34;;;6.54;100.00
75942;BME280;64622;46.220;19.878;2024-03-08T09:35:00;100881.88;;;6.72;100.00
75942;BME280;64622;46.220;19.878;2024-03-08T09:37:28;100881.28;;;6.69;100.00
75942;BME280;64622;46.220;19.878;2024-03-08T09:39:54;100871.13;;;6.63;100.00
75942;BME280;64622;46.220;19.878;2024-03-08T09:42:20;100870.87;;;6.55;100.00
75942;BME280;64622;46.220;19.878;2024-03-08T09:44:48;100871.00;;;6.76;100.00
75942;BME280;64622;46.220;19.878;2024-03-08T09:47:15;100879.12;;;6.74;100.00
75942;BME280;64622;46.220;19.878;2024-03-08T09:49:42;100874.63;;;6.74;100.00
75942;BME280;64622;46.220;19.878;2024-03-08T09:52:10;100883.94;;;7.13;100.00
75942;BME280;64622;46.220;19.878;2024-03-08T09:54:38;100883.19;;;7.11;100.00
75942;BME280;64622;46.220;19.878;2024-03-08T09:57:06;100883.56;;;6.73;100.00
75942;BME280;64622;46.220;19.878;2024-03-08T09:59:36;100883.72;;;6.83;100.00
75942;BME280;64622;46.220;19.878;2024-03-08T10:02:02;100876.22;;;6.88;100.00
75942;BME280;64622;46.220;19.878;2024-03-08T10:04:29;100874.88;;;6.93;100.00
75942;BME280;64622;46.220;19.878;2024-03-08T10:07:00;100876.22;;;6.99;100.00
75942;BME280;64622;46.220;19.878;2024-03-08T10:09:27;100884.66;;;6.71;100.00
75942;BME280;64622;46.220;19.878;2024-03-08T10:11:57;100898.81;;;6.82;100.00
75942;BME280;64622;46.220;19.878;2024-03-08T10:14:25;100889.88;;;6.72;100.00
75942;BME280;64622;46.220;19.878;2024-03-08T10:16:56;100898.59;;;6.86;100.00
75942;BME280;64622;46.220;19.878;2024-03-08T10:19:27;100893.38;;;6.84;100.00
75942;BME280;64622;46.220;19.878;2024-03-08T10:21:56;100895.56;;;6.79;100.00
75942;BME280;64622;46.220;19.878;2024-03-08T10:24:24;100891.06;;;6.57;100.00
75942;BME280;64622;46.220;19.878;2024-03-08T10:27:01;100899.03;;;6.57;100.00
75942;BME280;64622;46.220;19.878;2024-03-08T10:29:32;100904.34;;;6.47;100.00
75942;BME280;64622;46.220;19.878;2024-03-08T10:31:58;100896.50;;;6.67;100.00
75942;BME280;64622;46.220;19.878;2024-03-08T10:34:26;100906.62;;;6.40;100.00
75942;BME280;64622;46.220;19.878;2024-03-08T10:36:53;100896.00;;;6.51;100.00
75942;BME280;64622;46.220;19.878;2024-03-08T10:39:24;100894.59;;;6.91;100.00
75942;BME280;64622;46.220;19.878;2024-03-08T10:41:58;100888.28;;;6.92;100.00
75942;BME280;64622;46.220;19.878;2024-03-08T10:49:38;100889.88;;;7.06;100.00
75942;BME280;64622;46.220;19.878;2024-03-08T10:52:05;100889.50;;;6.99;100.00
75942;BME280;64622;46.220;19.878;2024-03-08T10:54:37;100883.47;;;7.08;100.00
75942;BME280;64622;46.220;19.878;2024-03-08T10:57:07;100882.47;;;7.20;100.00
75942;BME280;64622;46.220;19.878;2024-03-08T10:59:37;100879.91;;;7.29;100.00
75942;BME280;64622;46.220;19.878;2024-03-08T11:02:04;100890.78;;;7.37;100.00
75942;BME280;64622;46.220;19.878;2024-03-08T11:04:31;100877.03;;;7.22;100.00
75942;BME280;64622;46.220;19.878;2024-03-08T11:07:03;100881.13;;;7.14;100.00
75942;BME280;64622;46.220;19.878;2024-03-08T11:09:37;100881.16;;;7.03;100.00
75942;BME280;64622;46.220;19.878;2024-03-08T11:12:28;100880.13;;;7.37;100.00
75942;BME280;64622;46.220;19.878;2024-03-08T11:15:13;100868.78;;;7.13;100.00
75942;BME280;64622;46.220;19.878;2024-03-08T11:17:45;100873.22;;;7.46;100.00
75942;BME280;64622;46.220;19.878;2024-03-08T11:20:19;100866.47;;;7.73;100.00
75942;BME280;64622;46.220;19.878;2024-03-08T11:22:54;100862.00;;;7.74;100.00
75942;BME280;64622;46.220;19.878;2024-03-08T11:25:32;100864.97;;;7.80;100.00
75942;BME280;64622;46.220;19.878;2024-03-08T11:28:08;100861.41;;;7.91;100.00
75942;BME280;64622;46.220;19.878;2024-03-08T11:30:35;100861.31;;;7.61;100.00
75942;BME280;64622;46.220;19.878;2024-03-08T11:33:02;100861.66;;;7.68;100.00
75942;BME280;64622;46.220;19.878;2024-03-08T11:35:30;100860.09;;;7.85;100.00
75942;BME280;64622;46.220;19.878;2024-03-08T11:37:59;100858.50;;;8.14;100.00
75942;BME280;64622;46.220;19.878;2024-03-08T11:40:29;100854.84;;;8.27;100.00
75942;BME280;64622;46.220;19.878;2024-03-08T11:42:56;100846.94;;;8.04;100.00
75942;BME280;64622;46.220;19.878;2024-03-08T11:45:22;100848.94;;;8.12;100.00
75942;BME280;64622;46.220;19.878;2024-03-08T11:47:49;100850.13;;;7.98;100.00
75942;BME280;64622;46.220;19.878;2024-03-08T11:50:16;100846.84;;;8.27;100.00
75942;BME280;64622;46.220;19.878;2024-03-08T11:52:44;100843.16;;;8.07;100.00
75942;BME280;64622;46.220;19.878;2024-03-08T11:55:12;100838.25;;;8.23;100.00
75942;BME280;64622;46.220;19.878;2024-03-08T11:57:39;100843.06;;;8.29;100.00
75942;BME280;64622;46.220;19.878;2024-03-08T12:00:06;100846.41;;;8.10;100.00
75942;BME280;64622;46.220;19.878;2024-03-08T12:02:34;100838.81;;;8.06;100.00
75942;BME280;64622;46.220;19.878;2024-03-08T12:05:04;100842.97;;;8.19;100.00
75942;BME280;64622;46.220;19.878;2024-03-08T12:07:35;100834.91;;;8.10;100.00
75942;BME280;64622;46.220;19.878;2024-03-08T12:10:18;100841.53;;;8.15;100.00
75942;BME280;64622;46.220;19.878;2024-03-08T12:12:47;100829.06;;;8.16;100.00
75942;BME280;64622;46.220;19.878;2024-03-08T12:15:18;100836.72;;;7.89;100.00
75942;BME280;64622;46.220;19.878;2024-03-08T12:17:47;100835.75;;;8.10;100.00
75942;BME280;64622;46.220;19.878;2024-03-08T12:22:50;100829.53;;;8.72;100.00
75942;BME280;64622;46.220;19.878;2024-03-08T12:25:20;100822.84;;;8.87;100.00
75942;BME280;64622;46.220;19.878;2024-03-08T12:27:47;100822.38;;;9.12;100.00
75942;BME280;64622;46.220;19.878;2024-03-08T12:32:48;100818.16;;;9.09;100.00
75942;BME280;64622;46.220;19.878;2024-03-08T12:35:15;100819.06;;;8.89;100.00
75942;BME280;64622;46.220;19.878;2024-03-08T12:37:42;100812.75;;;9.00;100.00
75942;BME280;64622;46.220;19.878;2024-03-08T12:40:09;100804.38;;;9.14;100.00
75942;BME280;64622;46.220;19.878;2024-03-08T12:42:36;100823.81;;;8.86;100.00
75942;BME280;64622;46.220;19.878;2024-03-08T12:45:04;100819.44;;;8.75;100.00
75942;BME280;64622;46.220;19.878;2024-03-08T12:47:32;100817.47;;;8.77;100.00
75942;BME280;64622;46.220;19.878;2024-03-08T12:49:59;100823.87;;;8.65;100.00
75942;BME280;64622;46.220;19.878;2024-03-08T12:52:26;100820.78;;;8.60;100.00
75942;BME280;64622;46.220;19.878;2024-03-08T12:54:52;100813.75;;;8.59;100.00